sensor_id;sensor_type;location;lat;lon;timestamp;temperature;humidity
48007;DHT22;33771;48.180;11.400;2023-04-28T00:01:13;7.70;99.90
48007;DHT22;33771;48.180;11.400;2023-04-28T00:03:39;7.70;99.90
48007;DHT22;33771;48.180;11.400;2023-04-28T00:06:04;7.60;99.90
48007;DHT22;33771;48.180;11.400;2023-04-28T00:08:30;7.70;99.90
48007;DHT22;33771;48.180;11.400;2023-04-28T00:10:56;7.60;99.90
48007;DHT22;33771;48.180;11.400;2023-04-28T00:13:22;7.60;99.90
48007;DHT22;33771;48.180;11.400;2023-04-28T00:15:49;7.60;99.90
48007;DHT22;33771;48.180;11.400;2023-04-28T00:18:14;7.60;99.90
48007;DHT22;33771;48.180;11.400;2023-04-28T00:20:40;7.60;99.90
48007;DHT22;33771;48.180;11.400;2023-04-28T00:23:06;7.60;99.90
48007;DHT22;33771;48.180;11.400;2023-04-28T00:25:31;7.60;99.90
48007;DHT22;33771;48.180;11.400;2023-04-28T00:27:57;7.60;99.90
48007;DHT22;33771;48.180;11.400;2023-04-28T00:30:22;7.60;99.90
48007;DHT22;33771;48.180;11.400;2023-04-28T00:32:49;7.60;99.90
48007;DHT22;33771;48.180;11.400;2023-04-28T00:35:15;7.60;99.90
48007;DHT22;33771;48.180;11.400;2023-04-28T00:37:40;7.60;99.90
48007;DHT22;33771;48.180;11.400;2023-04-28T00:40:06;7.60;99.90
48007;DHT22;33771;48.180;11.400;2023-04-28T00:42:32;7.60;99.90
48007;DHT22;33771;48.180;11.400;2023-04-28T00:44:57;7.60;99.90
48007;DHT22;33771;48.180;11.400;2023-04-28T00:47:23;7.60;99.90
48007;DHT22;33771;48.180;11.400;2023-04-28T00:49:49;7.60;99.90
48007;DHT22;33771;48.180;11.400;2023-04-28T00:52:15;7.60;99.90
48007;DHT22;33771;48.180;11.400;2023-04-28T00:54:40;7.60;99.90
48007;DHT22;33771;48.180;11.400;2023-04-28T00:57:09;7.60;99.90
48007;DHT22;33771;48.180;11.400;2023-04-28T00:59:35;7.60;99.90
48007;DHT22;33771;48.180;11.400;2023-04-28T01:02:01;7.60;99.90
48007;DHT22;33771;48.180;11.400;2023-04-28T01:04:28;7.60;99.90
48007;DHT22;33771;48.180;11.400;2023-04-28T01:06:55;7.70;99.90
48007;DHT22;33771;48.180;11.400;2023-04-28T01:09:20;7.60;99.90
48007;DHT22;33771;48.180;11.400;2023-04-28T01:11:46;7.70;99.90
48007;DHT22;33771;48.180;11.400;2023-04-28T01:14:12;7.70;99.90
48007;DHT22;33771;48.180;11.400;2023-04-28T01:16:38;7.70;99.90
48007;DHT22;33771;48.180;11.400;2023-04-28T01:19:11;7.70;99.90
48007;DHT22;33771;48.180;11.400;2023-04-28T01:21:39;7.70;99.90
48007;DHT22;33771;48.180;11.400;2023-04-28T01:24:05;7.70;99.90
48007;DHT22;33771;48.180;11.400;2023-04-28T01:26:31;7.70;99.90
48007;DHT22;33771;48.180;11.400;2023-04-28T01:28:56;7.70;99.90
48007;DHT22;33771;48.180;11.400;2023-04-28T01:31:22;7.70;99.90
48007;DHT22;33771;48.180;11.400;2023-04-28T01:33:47;7.70;99.90
48007;DHT22;33771;48.180;11.400;2023-04-28T01:36:13;7.70;99.90
48007;DHT22;33771;48.180;11.400;2023-04-28T01:38:38;7.70;99.90
48007;DHT22;33771;48.180;11.400;2023-04-28T01:41:04;7.70;99.90
48007;DHT22;33771;48.180;11.400;2023-04-28T01:43:29;7.70;99.90
48007;DHT22;33771;48.180;11.400;2023-04-28T01:45:55;7.70;99.90
48007;DHT22;33771;48.180;11.400;2023-04-28T01:48:20;7.80;99.90
48007;DHT22;33771;48.180;11.400;2023-04-28T01:50:46;7.80;99.90
48007;DHT22;33771;48.180;11.400;2023-04-28T01:53:12;7.80;99.90
48007;DHT22;33771;48.180;11.400;2023-04-28T01:55:38;7.80;99.90
48007;DHT22;33771;48.180;11.400;2023-04-28T01:58:03;7.80;99.90
48007;DHT22;33771;48.180;11.400;2023-04-28T02:00:29;7.80;99.90
48007;DHT22;33771;48.180;11.400;2023-04-28T02:02:55;7.80;99.90
48007;DHT22;33771;48.180;11.400;2023-04-28T02:05:20;7.80;99.90
48007;DHT22;33771;48.180;11.400;2023-04-28T02:07:46;7.90;99.90
48007;DHT22;33771;48.180;11.400;2023-04-28T02:10:12;7.90;99.90
48007;DHT22;33771;48.180;11.400;2023-04-28T02:12:38;7.90;99.90
48007;DHT22;33771;48.180;11.400;2023-04-28T02:15:06;7.90;99.90
48007;DHT22;33771;48.180;11.400;2023-04-28T02:17:32;7.90;99.90
48007;DHT22;33771;48.180;11.400;2023-04-28T02:19:57;7.90;99.90
48007;DHT22;33771;48.180;11.400;2023-04-28T02:22:23;7.90;99.90
48007;DHT22;33771;48.180;11.400;2023-04-28T02:24:49;7.90;99.90
48007;DHT22;33771;48.180;11.400;2023-04-28T02:27:14;8.00;99.90
48007;DHT22;33771;48.180;11.400;2023-04-28T02:29:40;8.00;99.90
48007;DHT22;33771;48.180;11.400;2023-04-28T02:32:06;8.00;99.90
48007;DHT22;33771;48.180;11.400;2023-04-28T02:34:32;8.00;99.90
48007;DHT22;33771;48.180;11.400;2023-04-28T02:36:58;8.00;99.90
48007;DHT22;33771;48.180;11.400;2023-04-28T02:39:24;8.10;99.90
48007;DHT22;33771;48.180;11.400;2023-04-28T02:41:52;8.10;99.90
48007;DHT22;33771;48.180;11.400;2023-04-28T02:44:17;8.10;99.90
48007;DHT22;33771;48.180;11.400;2023-04-28T02:46:43;8.10;99.90
48007;DHT22;33771;48.180;11.400;2023-04-28T02:49:08;8.10;99.90
48007;DHT22;33771;48.180;11.400;2023-04-28T02:51:34;8.10;99.90
48007;DHT22;33771;48.180;11.400;2023-04-28T02:53:59;8.10;99.90
48007;DHT22;33771;48.180;11.400;2023-04-28T02:56:25;8.10;99.90
48007;DHT22;33771;48.180;11.400;2023-04-28T02:58:51;8.10;99.90
48007;DHT22;33771;48.180;11.400;2023-04-28T03:01:17;8.20;99.90
48007;DHT22;33771;48.180;11.400;2023-04-28T03:03:42;8.20;99.90
48007;DHT22;33771;48.180;11.400;2023-04-28T03:06:08;8.20;99.90
48007;DHT22;33771;48.180;11.400;2023-04-28T03:08:33;8.20;99.90
48007;DHT22;33771;48.180;11.400;2023-04-28T03:10:59;8.20;99.90
48007;DHT22;33771;48.180;11.400;2023-04-28T03:13:24;8.30;99.90
48007;DHT22;33771;48.180;11.400;2023-04-28T03:15:51;8.30;99.90
48007;DHT22;33771;48.180;11.400;2023-04-28T03:18:16;8.30;99.90
48007;DHT22;33771;48.180;11.400;2023-04-28T03:20:43;8.30;99.90
48007;DHT22;33771;48.180;11.400;2023-04-28T03:23:08;8.30;99.90
48007;DHT22;33771;48.180;11.400;2023-04-28T03:25:34;8.30;99.90
48007;DHT22;33771;48.180;11.400;2023-04-28T03:28:00;8.30;99.90
48007;DHT22;33771;48.180;11.400;2023-04-28T03:30:26;8.30;99.90
48007;DHT22;33771;48.180;11.400;2023-04-28T03:32:51;8.30;99.90
48007;DHT22;33771;48.180;11.400;2023-04-28T03:35:17;8.30;99.90
48007;DHT22;33771;48.180;11.400;2023-04-28T03:37:43;8.30;99.90
48007;DHT22;33771;48.180;11.400;2023-04-28T03:40:09;8.30;99.90
48007;DHT22;33771;48.180;11.400;2023-04-28T03:42:35;8.30;99.90
48007;DHT22;33771;48.180;11.400;2023-04-28T03:45:00;8.30;99.90
48007;DHT22;33771;48.180;11.400;2023-04-28T03:47:26;8.20;99.90
48007;DHT22;33771;48.180;11.400;2023-04-28T03:49:52;8.20;99.90
48007;DHT22;33771;48.180;11.400;2023-04-28T03:52:18;8.20;99.90
48007;DHT22;33771;48.180;11.400;2023-04-28T03:54:43;8.20;99.90
48007;DHT22;33771;48.180;11.400;2023-04-28T03:57:09;8.20;99.90
48007;DHT22;33771;48.180;11.400;2023-04-28T03:59:34;8.20;99.90
48007;DHT22;33771;48.180;11.400;2023-04-28T04:02:01;8.20;99.90
48007;DHT22;33771;48.180;11.400;2023-04-28T04:04:26;8.20;99.90
48007;DHT22;33771;48.180;11.400;2023-04-28T04:06:52;8.30;99.90
48007;DHT22;33771;48.180;11.400;2023-04-28T04:09:18;8.30;99.90
48007;DHT22;33771;48.180;11.400;2023-04-28T04:11:43;8.30;99.90
48007;DHT22;33771;48.180;11.400;2023-04-28T04:14:09;8.30;99.90
48007;DHT22;33771;48.180;11.400;2023-04-28T04:16:35;8.30;99.90
48007;DHT22;33771;48.180;11.400;2023-04-28T04:19:01;8.30;99.90
48007;DHT22;33771;48.180;11.400;2023-04-28T04:21:26;8.30;99.90
48007;DHT22;33771;48.180;11.400;2023-04-28T04:23:52;8.30;99.90
48007;DHT22;33771;48.180;11.400;2023-04-28T04:26:18;8.30;99.90
48007;DHT22;33771;48.180;11.400;2023-04-28T04:28:44;8.30;99.90
48007;DHT22;33771;48.180;11.400;2023-04-28T04:31:09;8.20;99.90
48007;DHT22;33771;48.180;11.400;2023-04-28T04:33:35;8.20;99.90
48007;DHT22;33771;48.180;11.400;2023-04-28T04:36:02;8.20;99.90
48007;DHT22;33771;48.180;11.400;2023-04-28T04:38:29;8.20;99.90
48007;DHT22;33771;48.180;11.400;2023-04-28T04:40:55;8.20;99.90
48007;DHT22;33771;48.180;11.400;2023-04-28T04:43:20;8.30;99.90
48007;DHT22;33771;48.180;11.400;2023-04-28T04:45:46;8.30;99.90
48007;DHT22;33771;48.180;11.400;2023-04-28T04:48:12;8.30;99.90
48007;DHT22;33771;48.180;11.400;2023-04-28T04:50:37;8.30;99.90
48007;DHT22;33771;48.180;11.400;2023-04-28T04:53:03;8.40;99.90
48007;DHT22;33771;48.180;11.400;2023-04-28T04:55:29;8.40;99.90
48007;DHT22;33771;48.180;11.400;2023-04-28T04:57:54;8.40;99.90
48007;DHT22;33771;48.180;11.400;2023-04-28T05:00:20;8.50;99.90
48007;DHT22;33771;48.180;11.400;2023-04-28T05:02:46;8.50;99.90
48007;DHT22;33771;48.180;11.400;2023-04-28T05:05:11;8.50;99.90
48007;DHT22;33771;48.180;11.400;2023-04-28T05:07:37;8.50;99.90
48007;DHT22;33771;48.180;11.400;2023-04-28T05:10:03;8.50;99.90
48007;DHT22;33771;48.180;11.400;2023-04-28T05:12:28;8.50;99.90
48007;DHT22;33771;48.180;11.400;2023-04-28T05:14:54;8.50;99.90
48007;DHT22;33771;48.180;11.400;2023-04-28T05:17:19;8.60;99.90
48007;DHT22;33771;48.180;11.400;2023-04-28T05:19:45;8.60;99.90
48007;DHT22;33771;48.180;11.400;2023-04-28T05:22:10;8.60;99.90
48007;DHT22;33771;48.180;11.400;2023-04-28T05:24:36;8.60;99.90
48007;DHT22;33771;48.180;11.400;2023-04-28T05:27:02;8.70;99.90
48007;DHT22;33771;48.180;11.400;2023-04-28T05:29:28;8.70;99.90
48007;DHT22;33771;48.180;11.400;2023-04-28T05:31:53;8.70;99.90
48007;DHT22;33771;48.180;11.400;2023-04-28T05:34:19;8.70;99.90
48007;DHT22;33771;48.180;11.400;2023-04-28T05:36:44;8.80;99.90
48007;DHT22;33771;48.180;11.400;2023-04-28T05:39:10;8.80;99.90
48007;DHT22;33771;48.180;11.400;2023-04-28T05:41:36;8.80;99.90
48007;DHT22;33771;48.180;11.400;2023-04-28T05:44:01;8.90;99.90
48007;DHT22;33771;48.180;11.400;2023-04-28T05:46:27;8.90;99.90
48007;DHT22;33771;48.180;11.400;2023-04-28T05:48:52;8.90;99.90
48007;DHT22;33771;48.180;11.400;2023-04-28T05:51:18;9.00;99.90
48007;DHT22;33771;48.180;11.400;2023-04-28T05:53:44;9.00;99.90
48007;DHT22;33771;48.180;11.400;2023-04-28T05:56:13;9.00;99.90
48007;DHT22;33771;48.180;11.400;2023-04-28T05:58:39;9.00;99.90
48007;DHT22;33771;48.180;11.400;2023-04-28T06:01:05;9.10;99.90
48007;DHT22;33771;48.180;11.400;2023-04-28T06:03:31;9.10;99.90
48007;DHT22;33771;48.180;11.400;2023-04-28T06:05:56;9.10;99.90
48007;DHT22;33771;48.180;11.400;2023-04-28T06:08:22;9.10;99.90
48007;DHT22;33771;48.180;11.400;2023-04-28T06:10:47;9.20;99.90
48007;DHT22;33771;48.180;11.400;2023-04-28T06:13:13;9.20;99.90
48007;DHT22;33771;48.180;11.400;2023-04-28T06:15:38;9.20;99.90
48007;DHT22;33771;48.180;11.400;2023-04-28T06:18:04;9.30;99.90
48007;DHT22;33771;48.180;11.400;2023-04-28T06:20:34;9.30;99.90
48007;DHT22;33771;48.180;11.400;2023-04-28T06:23:00;9.30;99.90
48007;DHT22;33771;48.180;11.400;2023-04-28T06:25:25;9.40;99.90
48007;DHT22;33771;48.180;11.400;2023-04-28T06:27:51;9.40;99.90
48007;DHT22;33771;48.180;11.400;2023-04-28T06:30:18;9.40;99.90
48007;DHT22;33771;48.180;11.400;2023-04-28T06:32:45;9.50;99.90
48007;DHT22;33771;48.180;11.400;2023-04-28T06:35:10;9.50;99.90
48007;DHT22;33771;48.180;11.400;2023-04-28T06:37:36;9.60;99.90
48007;DHT22;33771;48.180;11.400;2023-04-28T06:40:02;9.70;99.90
48007;DHT22;33771;48.180;11.400;2023-04-28T06:42:27;9.80;99.90
48007;DHT22;33771;48.180;11.400;2023-04-28T06:44:53;9.90;99.90
48007;DHT22;33771;48.180;11.400;2023-04-28T06:47:19;10.10;99.90
48007;DHT22;33771;48.180;11.400;2023-04-28T06:49:45;10.20;99.90
48007;DHT22;33771;48.180;11.400;2023-04-28T06:52:11;10.40;99.90
48007;DHT22;33771;48.180;11.400;2023-04-28T06:54:38;10.60;99.90
48007;DHT22;33771;48.180;11.400;2023-04-28T06:57:04;10.80;99.90
48007;DHT22;33771;48.180;11.400;2023-04-28T06:59:30;11.00;99.90
48007;DHT22;33771;48.180;11.400;2023-04-28T07:01:55;11.30;99.90
48007;DHT22;33771;48.180;11.400;2023-04-28T07:04:21;11.50;99.90
48007;DHT22;33771;48.180;11.400;2023-04-28T07:06:46;11.70;99.90
48007;DHT22;33771;48.180;11.400;2023-04-28T07:09:12;11.80;99.90
48007;DHT22;33771;48.180;11.400;2023-04-28T07:11:38;11.90;99.90
48007;DHT22;33771;48.180;11.400;2023-04-28T07:14:03;12.00;99.90
48007;DHT22;33771;48.180;11.400;2023-04-28T07:16:29;12.10;99.90
48007;DHT22;33771;48.180;11.400;2023-04-28T07:18:55;12.10;99.90
48007;DHT22;33771;48.180;11.400;2023-04-28T07:21:21;12.20;99.90
48007;DHT22;33771;48.180;11.400;2023-04-28T07:23:46;12.20;99.90
48007;DHT22;33771;48.180;11.400;2023-04-28T07:26:13;12.20;99.90
48007;DHT22;33771;48.180;11.400;2023-04-28T07:28:41;12.30;99.90
48007;DHT22;33771;48.180;11.400;2023-04-28T07:31:06;12.30;99.90
48007;DHT22;33771;48.180;11.400;2023-04-28T07:33:32;12.30;99.90
48007;DHT22;33771;48.180;11.400;2023-04-28T07:35:57;12.30;99.90
48007;DHT22;33771;48.180;11.400;2023-04-28T07:38:23;12.40;99.90
48007;DHT22;33771;48.180;11.400;2023-04-28T07:40:48;12.40;99.90
48007;DHT22;33771;48.180;11.400;2023-04-28T07:43:14;12.40;99.90
48007;DHT22;33771;48.180;11.400;2023-04-28T07:45:39;12.40;99.90
48007;DHT22;33771;48.180;11.400;2023-04-28T07:48:05;12.40;99.90
48007;DHT22;33771;48.180;11.400;2023-04-28T07:50:31;12.30;99.90
48007;DHT22;33771;48.180;11.400;2023-04-28T07:52:57;12.30;99.90
48007;DHT22;33771;48.180;11.400;2023-04-28T07:55:23;12.20;99.90
48007;DHT22;33771;48.180;11.400;2023-04-28T07:57:49;12.20;99.90
48007;DHT22;33771;48.180;11.400;2023-04-28T08:00:15;12.10;99.90
48007;DHT22;33771;48.180;11.400;2023-04-28T08:02:40;12.10;99.90
48007;DHT22;33771;48.180;11.400;2023-04-28T08:05:06;12.10;99.90
48007;DHT22;33771;48.180;11.400;2023-04-28T08:07:33;12.00;99.90
48007;DHT22;33771;48.180;11.400;2023-04-28T08:09:59;12.00;99.90
48007;DHT22;33771;48.180;11.400;2023-04-28T08:12:25;12.00;99.90
48007;DHT22;33771;48.180;11.400;2023-04-28T08:14:51;12.00;99.90
48007;DHT22;33771;48.180;11.400;2023-04-28T08:17:17;11.90;99.90
48007;DHT22;33771;48.180;11.400;2023-04-28T08:19:42;11.90;99.90
48007;DHT22;33771;48.180;11.400;2023-04-28T08:22:10;11.90;99.90
48007;DHT22;33771;48.180;11.400;2023-04-28T08:24:36;11.90;99.90
48007;DHT22;33771;48.180;11.400;2023-04-28T08:27:02;11.80;99.90
48007;DHT22;33771;48.180;11.400;2023-04-28T08:29:29;11.80;99.90
48007;DHT22;33771;48.180;11.400;2023-04-28T08:31:55;11.70;99.90
48007;DHT22;33771;48.180;11.400;2023-04-28T08:34:20;11.70;99.90
48007;DHT22;33771;48.180;11.400;2023-04-28T08:36:46;11.60;99.90
48007;DHT22;33771;48.180;11.400;2023-04-28T08:39:11;11.50;99.90
48007;DHT22;33771;48.180;11.400;2023-04-28T08:41:37;11.50;99.90
48007;DHT22;33771;48.180;11.400;2023-04-28T08:44:10;11.50;99.90
48007;DHT22;33771;48.180;11.400;2023-04-28T08:46:40;11.50;99.90
48007;DHT22;33771;48.180;11.400;2023-04-28T08:49:11;11.50;99.90
48007;DHT22;33771;48.180;11.400;2023-04-28T08:51:44;11.50;99.90
48007;DHT22;33771;48.180;11.400;2023-04-28T08:54:14;11.50;99.90
48007;DHT22;33771;48.180;11.400;2023-04-28T08:56:41;11.60;99.90
48007;DHT22;33771;48.180;11.400;2023-04-28T08:59:10;11.60;99.90
48007;DHT22;33771;48.180;11.400;2023-04-28T09:01:35;11.70;99.90
48007;DHT22;33771;48.180;11.400;2023-04-28T09:04:02;11.70;99.90
48007;DHT22;33771;48.180;11.400;2023-04-28T09:06:35;11.70;99.90
48007;DHT22;33771;48.180;11.400;2023-04-28T09:12:02;11.90;99.90
48007;DHT22;33771;48.180;11.400;2023-04-28T09:14:30;11.90;99.90
48007;DHT22;33771;48.180;11.400;2023-04-28T09:16:57;11.90;99.90
48007;DHT22;33771;48.180;11.400;2023-04-28T09:19:23;12.00;99.90
48007;DHT22;33771;48.180;11.400;2023-04-28T09:21:56;11.90;99.90
48007;DHT22;33771;48.180;11.400;2023-04-28T09:24:29;11.90;99.90
48007;DHT22;33771;48.180;11.400;2023-04-28T09:26:56;11.90;99.90
48007;DHT22;33771;48.180;11.400;2023-04-28T09:29:22;11.80;99.90
48007;DHT22;33771;48.180;11.400;2023-04-28T09:31:47;11.70;99.90
48007;DHT22;33771;48.180;11.400;2023-04-28T09:34:13;11.70;99.90
48007;DHT22;33771;48.180;11.400;2023-04-28T09:36:40;11.70;99.90
48007;DHT22;33771;48.180;11.400;2023-04-28T09:39:06;11.60;99.90
48007;DHT22;33771;48.180;11.400;2023-04-28T09:44:18;11.60;99.90
48007;DHT22;33771;48.180;11.400;2023-04-28T09:46:46;11.60;99.90
48007;DHT22;33771;48.180;11.400;2023-04-28T09:49:12;11.60;99.90
48007;DHT22;33771;48.180;11.400;2023-04-28T09:51:38;11.60;99.90
48007;DHT22;33771;48.180;11.400;2023-04-28T09:54:04;11.60;99.90
48007;DHT22;33771;48.180;11.400;2023-04-28T09:56:32;11.60;99.90
48007;DHT22;33771;48.180;11.400;2023-04-28T09:58:59;11.60;99.90
48007;DHT22;33771;48.180;11.400;2023-04-28T10:01:32;11.60;99.90
48007;DHT22;33771;48.180;11.400;2023-04-28T10:03:59;11.60;99.90
48007;DHT22;33771;48.180;11.400;2023-04-28T10:06:27;11.60;99.90
48007;DHT22;33771;48.180;11.400;2023-04-28T10:08:54;11.60;99.90
48007;DHT22;33771;48.180;11.400;2023-04-28T10:11:22;11.60;99.90
48007;DHT22;33771;48.180;11.400;2023-04-28T10:13:49;11.60;99.90
48007;DHT22;33771;48.180;11.400;2023-04-28T10:16:16;11.60;99.90
48007;DHT22;33771;48.180;11.400;2023-04-28T10:18:43;11.70;99.90
48007;DHT22;33771;48.180;11.400;2023-04-28T10:21:11;11.70;99.90
48007;DHT22;33771;48.180;11.400;2023-04-28T10:29:23;11.80;99.90
48007;DHT22;33771;48.180;11.400;2023-04-28T10:34:39;11.90;99.90
48007;DHT22;33771;48.180;11.400;2023-04-28T10:37:05;12.00;99.90
48007;DHT22;33771;48.180;11.400;2023-04-28T10:39:31;12.00;99.90
48007;DHT22;33771;48.180;11.400;2023-04-28T10:41:56;12.00;99.90
48007;DHT22;33771;48.180;11.400;2023-04-28T11:00:46;12.00;99.90
48007;DHT22;33771;48.180;11.400;2023-04-28T11:06:24;12.00;99.90
48007;DHT22;33771;48.180;11.400;2023-04-28T11:11:32;12.10;99.90
48007;DHT22;33771;48.180;11.400;2023-04-28T11:16:55;11.90;99.90
48007;DHT22;33771;48.180;11.400;2023-04-28T11:21:59;11.70;99.90
48007;DHT22;33771;48.180;11.400;2023-04-28T11:24:26;11.70;99.90
48007;DHT22;33771;48.180;11.400;2023-04-28T11:26:53;11.80;99.90
48007;DHT22;33771;48.180;11.400;2023-04-28T11:29:39;11.80;99.90
48007;DHT22;33771;48.180;11.400;2023-04-28T11:32:06;11.80;99.90
48007;DHT22;33771;48.180;11.400;2023-04-28T11:34:33;11.90;99.90
48007;DHT22;33771;48.180;11.400;2023-04-28T11:36:59;11.90;99.90
48007;DHT22;33771;48.180;11.400;2023-04-28T11:39:29;12.00;99.90
48007;DHT22;33771;48.180;11.400;2023-04-28T11:41:56;12.10;99.90
48007;DHT22;33771;48.180;11.400;2023-04-28T11:44:27;12.20;99.90
48007;DHT22;33771;48.180;11.400;2023-04-28T11:46:58;12.20;99.90
48007;DHT22;33771;48.180;11.400;2023-04-28T11:49:28;12.20;99.90
48007;DHT22;33771;48.180;11.400;2023-04-28T11:52:04;12.30;99.90
48007;DHT22;33771;48.180;11.400;2023-04-28T11:54:30;12.40;99.90
48007;DHT22;33771;48.180;11.400;2023-04-28T11:56:57;12.40;99.90
48007;DHT22;33771;48.180;11.400;2023-04-28T11:59:33;12.50;99.90
48007;DHT22;33771;48.180;11.400;2023-04-28T12:02:04;12.60;99.90
48007;DHT22;33771;48.180;11.400;2023-04-28T12:04:39;12.60;99.90
48007;DHT22;33771;48.180;11.400;2023-04-28T12:07:12;12.60;99.90
48007;DHT22;33771;48.180;11.400;2023-04-28T12:09:39;12.60;99.90
48007;DHT22;33771;48.180;11.400;2023-04-28T12:12:07;12.60;99.90
48007;DHT22;33771;48.180;11.400;2023-04-28T12:15:00;12.60;99.90
48007;DHT22;33771;48.180;11.400;2023-04-28T12:17:30;12.60;99.90
48007;DHT22;33771;48.180;11.400;2023-04-28T12:19:58;12.70;99.90
48007;DHT22;33771;48.180;11.400;2023-04-28T12:22:25;12.70;99.90
48007;DHT22;33771;48.180;11.400;2023-04-28T12:27:28;12.80;99.90
48007;DHT22;33771;48.180;11.400;2023-04-28T12:29:54;12.90;99.90
48007;DHT22;33771;48.180;11.400;2023-04-28T12:32:39;13.00;99.90
48007;DHT22;33771;48.180;11.400;2023-04-28T12:35:06;13.10;99.90
48007;DHT22;33771;48.180;11.400;2023-04-28T12:37:32;13.20;99.90
48007;DHT22;33771;48.180;11.400;2023-04-28T12:39:57;13.30;99.90
48007;DHT22;33771;48.180;11.400;2023-04-28T12:42:23;13.30;99.90
48007;DHT22;33771;48.180;11.400;2023-04-28T12:44:49;13.50;99.90
48007;DHT22;33771;48.180;11.400;2023-04-28T12:47:15;13.40;99.90
48007;DHT22;33771;48.180;11.400;2023-04-28T12:49:43;13.40;99.90
48007;DHT22;33771;48.180;11.400;2023-04-28T12:52:09;13.50;99.90
48007;DHT22;33771;48.180;11.400;2023-04-28T12:54:35;13.50;99.90
48007;DHT22;33771;48.180;11.400;2023-04-28T12:57:01;13.60;99.90
48007;DHT22;33771;48.180;11.400;2023-04-28T12:59:27;13.60;99.90
48007;DHT22;33771;48.180;11.400;2023-04-28T13:01:53;13.60;99.90
48007;DHT22;33771;48.180;11.400;2023-04-28T13:04:21;13.70;99.90
48007;DHT22;33771;48.180;11.400;2023-04-28T13:06:47;13.80;99.90
48007;DHT22;33771;48.180;11.400;2023-04-28T13:09:14;13.90;99.90
48007;DHT22;33771;48.180;11.400;2023-04-28T13:11:40;14.10;99.90
48007;DHT22;33771;48.180;11.400;2023-04-28T13:14:06;14.20;99.90
48007;DHT22;33771;48.180;11.400;2023-04-28T13:16:32;14.20;99.90
48007;DHT22;33771;48.180;11.400;2023-04-28T13:18:59;14.20;99.90
48007;DHT22;33771;48.180;11.400;2023-04-28T13:21:25;14.10;99.90
48007;DHT22;33771;48.180;11.400;2023-04-28T13:23:54;14.10;99.90
48007;DHT22;33771;48.180;11.400;2023-04-28T13:26:21;14.10;99.90
48007;DHT22;33771;48.180;11.400;2023-04-28T13:28:50;14.10;99.90
48007;DHT22;33771;48.180;11.400;2023-04-28T13:31:16;14.20;99.90
48007;DHT22;33771;48.180;11.400;2023-04-28T13:33:42;14.20;99.90
48007;DHT22;33771;48.180;11.400;2023-04-28T13:36:08;14.30;99.90
48007;DHT22;33771;48.180;11.400;2023-04-28T13:38:34;14.30;99.90
48007;DHT22;33771;48.180;11.400;2023-04-28T13:40:59;14.40;99.90
48007;DHT22;33771;48.180;11.400;2023-04-28T13:43:25;14.40;99.90
48007;DHT22;33771;48.180;11.400;2023-04-28T13:45:51;14.40;99.90
48007;DHT22;33771;48.180;11.400;2023-04-28T13:48:17;14.30;99.90
48007;DHT22;33771;48.180;11.400;2023-04-28T13:50:43;14.30;99.90
48007;DHT22;33771;48.180;11.400;2023-04-28T13:53:08;14.40;99.90
48007;DHT22;33771;48.180;11.400;2023-04-28T13:55:34;14.40;99.90
48007;DHT22;33771;48.180;11.400;2023-04-28T13:58:00;14.50;99.90
48007;DHT22;33771;48.180;11.400;2023-04-28T14:00:29;14.50;99.90
48007;DHT22;33771;48.180;11.400;2023-04-28T14:02:56;14.60;99.90
48007;DHT22;33771;48.180;11.400;2023-04-28T14:05:22;14.70;99.90
48007;DHT22;33771;48.180;11.400;2023-04-28T14:07:48;14.80;99.90
48007;DHT22;33771;48.180;11.400;2023-04-28T14:10:13;14.80;99.90
48007;DHT22;33771;48.180;11.400;2023-04-28T14:12:39;14.80;99.90
48007;DHT22;33771;48.180;11.400;2023-04-28T14:15:05;14.90;99.90
48007;DHT22;33771;48.180;11.400;2023-04-28T14:17:31;14.90;99.90
48007;DHT22;33771;48.180;11.400;2023-04-28T14:19:59;14.90;99.90
48007;DHT22;33771;48.180;11.400;2023-04-28T14:22:26;14.90;99.90
48007;DHT22;33771;48.180;11.400;2023-04-28T14:24:51;15.00;99.90
48007;DHT22;33771;48.180;11.400;2023-04-28T14:27:17;14.90;99.90
48007;DHT22;33771;48.180;11.400;2023-04-28T14:29:43;15.00;99.90
48007;DHT22;33771;48.180;11.400;2023-04-28T14:32:15;14.90;99.90
48007;DHT22;33771;48.180;11.400;2023-04-28T14:34:41;14.80;99.90
48007;DHT22;33771;48.180;11.400;2023-04-28T14:37:07;14.80;99.90
48007;DHT22;33771;48.180;11.400;2023-04-28T14:39:33;14.70;99.90
48007;DHT22;33771;48.180;11.400;2023-04-28T14:41:59;14.60;99.90
48007;DHT22;33771;48.180;11.400;2023-04-28T14:44:25;14.50;99.90
48007;DHT22;33771;48.180;11.400;2023-04-28T14:46:50;14.60;99.90
48007;DHT22;33771;48.180;11.400;2023-04-28T14:49:16;14.60;99.90
48007;DHT22;33771;48.180;11.400;2023-04-28T14:51:42;14.60;99.90
48007;DHT22;33771;48.180;11.400;2023-04-28T14:54:08;14.60;99.90
48007;DHT22;33771;48.180;11.400;2023-04-28T14:56:34;14.60;99.90
48007;DHT22;33771;48.180;11.400;2023-04-28T14:58:59;14.60;99.90
48007;DHT22;33771;48.180;11.400;2023-04-28T15:01:25;14.70;99.90
48007;DHT22;33771;48.180;11.400;2023-04-28T15:03:50;14.70;99.90
48007;DHT22;33771;48.180;11.400;2023-04-28T15:06:16;14.60;99.90
48007;DHT22;33771;48.180;11.400;2023-04-28T15:08:42;14.50;99.90
48007;DHT22;33771;48.180;11.400;2023-04-28T15:11:07;14.50;99.90
48007;DHT22;33771;48.180;11.400;2023-04-28T15:13:33;14.40;99.90
48007;DHT22;33771;48.180;11.400;2023-04-28T15:15:59;14.30;99.90
48007;DHT22;33771;48.180;11.400;2023-04-28T15:18:24;14.20;99.90
48007;DHT22;33771;48.180;11.400;2023-04-28T15:20:50;14.20;99.90
48007;DHT22;33771;48.180;11.400;2023-04-28T15:23:16;14.20;99.90
48007;DHT22;33771;48.180;11.400;2023-04-28T15:25:42;14.10;99.90
48007;DHT22;33771;48.180;11.400;2023-04-28T15:28:07;14.10;99.90
48007;DHT22;33771;48.180;11.400;2023-04-28T15:30:33;14.00;99.90
48007;DHT22;33771;48.180;11.400;2023-04-28T15:32:59;14.00;99.90
48007;DHT22;33771;48.180;11.400;2023-04-28T15:35:25;13.90;99.90
48007;DHT22;33771;48.180;11.400;2023-04-28T15:37:50;13.80;99.90
48007;DHT22;33771;48.180;11.400;2023-04-28T15:40:17;13.70;99.90
48007;DHT22;33771;48.180;11.400;2023-04-28T15:42:44;13.70;99.90
48007;DHT22;33771;48.180;11.400;2023-04-28T15:45:14;13.70;99.90
48007;DHT22;33771;48.180;11.400;2023-04-28T15:47:41;13.60;99.90
48007;DHT22;33771;48.180;11.400;2023-04-28T15:50:08;13.60;99.90
48007;DHT22;33771;48.180;11.400;2023-04-28T15:52:37;13.60;99.90
48007;DHT22;33771;48.180;11.400;2023-04-28T15:55:05;13.50;99.90
48007;DHT22;33771;48.180;11.400;2023-04-28T15:57:31;13.50;99.90
48007;DHT22;33771;48.180;11.400;2023-04-28T15:59:56;13.50;99.90
48007;DHT22;33771;48.180;11.400;2023-04-28T16:02:22;13.50;99.90